sensor_id;sensor_type;location;lat;lon;timestamp;temperature;humidity
51011;DHT22;37038;50.182;8.624;2023-04-25T00:00:48;7.90;99.90
51011;DHT22;37038;50.182;8.624;2023-04-25T00:03:36;7.90;99.90
51011;DHT22;37038;50.182;8.624;2023-04-25T00:06:29;7.90;99.90
51011;DHT22;37038;50.182;8.624;2023-04-25T00:09:29;7.90;99.90
51011;DHT22;37038;50.182;8.624;2023-04-25T00:12:17;7.90;99.90
51011;DHT22;37038;50.182;8.624;2023-04-25T00:15:23;8.00;99.90
51011;DHT22;37038;50.182;8.624;2023-04-25T00:18:26;7.90;99.90
51011;DHT22;37038;50.182;8.624;2023-04-25T00:24:40;7.90;99.90
51011;DHT22;37038;50.182;8.624;2023-04-25T00:27:50;7.90;99.90
51011;DHT22;37038;50.182;8.624;2023-04-25T00:30:58;7.90;99.90
51011;DHT22;37038;50.182;8.624;2023-04-25T00:34:16;7.90;99.90
51011;DHT22;37038;50.182;8.624;2023-04-25T00:37:35;7.90;99.90
51011;DHT22;37038;50.182;8.624;2023-04-25T00:40:58;7.80;99.90
51011;DHT22;37038;50.182;8.624;2023-04-25T00:44:38;7.80;99.90
51011;DHT22;37038;50.182;8.624;2023-04-25T00:47:45;7.90;99.90
51011;DHT22;37038;50.182;8.624;2023-04-25T00:50:38;7.80;99.90
51011;DHT22;37038;50.182;8.624;2023-04-25T00:53:45;7.80;99.90
51011;DHT22;37038;50.182;8.624;2023-04-25T00:56:46;7.80;99.90
51011;DHT22;37038;50.182;8.624;2023-04-25T00:59:44;7.80;99.90
51011;DHT22;37038;50.182;8.624;2023-04-25T01:02:53;7.80;99.90
51011;DHT22;37038;50.182;8.624;2023-04-25T01:05:54;7.90;99.90
51011;DHT22;37038;50.182;8.624;2023-04-25T01:09:04;7.90;99.90
51011;DHT22;37038;50.182;8.624;2023-04-25T01:11:57;7.90;99.90
51011;DHT22;37038;50.182;8.624;2023-04-25T01:15:35;8.00;99.90
51011;DHT22;37038;50.182;8.624;2023-04-25T01:19:02;8.10;99.90
51011;DHT22;37038;50.182;8.624;2023-04-25T01:22:19;8.00;99.90
51011;DHT22;37038;50.182;8.624;2023-04-25T01:25:44;8.20;99.90
51011;DHT22;37038;50.182;8.624;2023-04-25T01:29:00;8.40;99.90
51011;DHT22;37038;50.182;8.624;2023-04-25T01:32:22;8.50;99.90
51011;DHT22;37038;50.182;8.624;2023-04-25T01:35:15;8.60;99.90
51011;DHT22;37038;50.182;8.624;2023-04-25T01:38:45;8.40;99.90
51011;DHT22;37038;50.182;8.624;2023-04-25T01:46:11;8.30;99.90
51011;DHT22;37038;50.182;8.624;2023-04-25T01:49:34;8.30;99.90
51011;DHT22;37038;50.182;8.624;2023-04-25T01:52:55;8.40;99.90
51011;DHT22;37038;50.182;8.624;2023-04-25T01:56:24;8.50;99.90
51011;DHT22;37038;50.182;8.624;2023-04-25T01:59:47;8.80;99.90
51011;DHT22;37038;50.182;8.624;2023-04-25T02:03:12;8.90;99.90
51011;DHT22;37038;50.182;8.624;2023-04-25T02:06:20;8.60;99.90
51011;DHT22;37038;50.182;8.624;2023-04-25T02:09:48;8.50;99.90
51011;DHT22;37038;50.182;8.624;2023-04-25T02:13:00;8.30;99.90
51011;DHT22;37038;50.182;8.624;2023-04-25T02:16:19;8.30;99.90
51011;DHT22;37038;50.182;8.624;2023-04-25T02:19:23;8.10;99.90
51011;DHT22;37038;50.182;8.624;2023-04-25T02:22:35;8.10;99.90
51011;DHT22;37038;50.182;8.624;2023-04-25T02:25:49;8.20;99.90
51011;DHT22;37038;50.182;8.624;2023-04-25T02:29:08;8.00;99.90
51011;DHT22;37038;50.182;8.624;2023-04-25T02:32:07;7.80;99.90
51011;DHT22;37038;50.182;8.624;2023-04-25T02:34:55;7.70;99.90
51011;DHT22;37038;50.182;8.624;2023-04-25T02:38:23;7.70;99.90
51011;DHT22;37038;50.182;8.624;2023-04-25T02:41:26;7.70;99.90
51011;DHT22;37038;50.182;8.624;2023-04-25T02:44:56;7.60;99.90
51011;DHT22;37038;50.182;8.624;2023-04-25T02:48:12;7.70;99.90
51011;DHT22;37038;50.182;8.624;2023-04-25T02:51:13;7.70;99.90
51011;DHT22;37038;50.182;8.624;2023-04-25T02:54:32;7.90;99.90
51011;DHT22;37038;50.182;8.624;2023-04-25T02:57:34;8.10;99.90
51011;DHT22;37038;50.182;8.624;2023-04-25T03:00:28;8.00;99.90
51011;DHT22;37038;50.182;8.624;2023-04-25T03:03:37;7.70;99.90
51011;DHT22;37038;50.182;8.624;2023-04-25T03:07:03;7.70;99.90
51011;DHT22;37038;50.182;8.624;2023-04-25T03:10:12;7.90;99.90
51011;DHT22;37038;50.182;8.624;2023-04-25T03:13:23;8.20;99.90
51011;DHT22;37038;50.182;8.624;2023-04-25T03:16:17;8.30;99.90
51011;DHT22;37038;50.182;8.624;2023-04-25T03:19:20;8.30;99.90
51011;DHT22;37038;50.182;8.624;2023-04-25T03:22:22;8.50;99.90
51011;DHT22;37038;50.182;8.624;2023-04-25T03:25:31;8.60;99.90
51011;DHT22;37038;50.182;8.624;2023-04-25T03:29:08;8.50;99.90
51011;DHT22;37038;50.182;8.624;2023-04-25T03:32:08;8.00;99.90
51011;DHT22;37038;50.182;8.624;2023-04-25T03:35:11;7.80;99.90
51011;DHT22;37038;50.182;8.624;2023-04-25T03:38:19;7.90;99.90
51011;DHT22;37038;50.182;8.624;2023-04-25T03:41:52;8.00;99.90
51011;DHT22;37038;50.182;8.624;2023-04-25T03:45:19;8.10;99.90
51011;DHT22;37038;50.182;8.624;2023-04-25T03:48:32;8.10;99.90
51011;DHT22;37038;50.182;8.624;2023-04-25T03:55:07;7.90;99.90
51011;DHT22;37038;50.182;8.624;2023-04-25T03:58:02;7.80;99.90
51011;DHT22;37038;50.182;8.624;2023-04-25T04:01:21;7.60;99.90
51011;DHT22;37038;50.182;8.624;2023-04-25T04:04:40;7.50;99.90
51011;DHT22;37038;50.182;8.624;2023-04-25T04:07:42;7.60;99.90
51011;DHT22;37038;50.182;8.624;2023-04-25T04:10:35;7.60;99.90
51011;DHT22;37038;50.182;8.624;2023-04-25T04:13:52;7.50;99.90
51011;DHT22;37038;50.182;8.624;2023-04-25T04:16:57;7.30;99.90
51011;DHT22;37038;50.182;8.624;2023-04-25T04:24:30;7.10;99.90
51011;DHT22;37038;50.182;8.624;2023-04-25T04:28:33;7.10;99.90
51011;DHT22;37038;50.182;8.624;2023-04-25T04:32:03;7.00;99.90
51011;DHT22;37038;50.182;8.624;2023-04-25T04:35:47;7.00;99.90
51011;DHT22;37038;50.182;8.624;2023-04-25T04:42:38;7.00;99.90
51011;DHT22;37038;50.182;8.624;2023-04-25T04:46:25;7.10;99.90
51011;DHT22;37038;50.182;8.624;2023-04-25T04:50:18;7.20;99.90
51011;DHT22;37038;50.182;8.624;2023-04-25T04:53:43;7.20;99.90
51011;DHT22;37038;50.182;8.624;2023-04-25T05:00:08;7.40;99.90
51011;DHT22;37038;50.182;8.624;2023-04-25T05:03:39;7.50;99.90
51011;DHT22;37038;50.182;8.624;2023-04-25T05:06:27;7.60;99.90
51011;DHT22;37038;50.182;8.624;2023-04-25T05:09:16;7.70;99.90
51011;DHT22;37038;50.182;8.624;2023-04-25T05:12:06;7.60;99.90
51011;DHT22;37038;50.182;8.624;2023-04-25T05:14:54;7.60;99.90
51011;DHT22;37038;50.182;8.624;2023-04-25T05:17:48;7.50;99.90
51011;DHT22;37038;50.182;8.624;2023-04-25T05:20:47;7.70;99.90
51011;DHT22;37038;50.182;8.624;2023-04-25T05:23:42;8.00;99.90
51011;DHT22;37038;50.182;8.624;2023-04-25T05:26:33;8.10;99.90
51011;DHT22;37038;50.182;8.624;2023-04-25T05:29:40;7.80;99.90
51011;DHT22;37038;50.182;8.624;2023-04-25T05:32:35;8.10;99.90
51011;DHT22;37038;50.182;8.624;2023-04-25T05:35:27;8.20;99.90
51011;DHT22;37038;50.182;8.624;2023-04-25T05:38:27;8.40;99.90
51011;DHT22;37038;50.182;8.624;2023-04-25T05:41:23;8.80;99.90
51011;DHT22;37038;50.182;8.624;2023-04-25T05:44:40;9.20;99.90
51011;DHT22;37038;50.182;8.624;2023-04-25T05:47:44;9.50;99.90
51011;DHT22;37038;50.182;8.624;2023-04-25T05:50:36;10.00;99.90
51011;DHT22;37038;50.182;8.624;2023-04-25T05:53:31;10.60;99.90
51011;DHT22;37038;50.182;8.624;2023-04-25T05:56:30;11.60;99.90
51011;DHT22;37038;50.182;8.624;2023-04-25T05:59:30;12.50;99.90
51011;DHT22;37038;50.182;8.624;2023-04-25T06:02:23;11.90;99.90
51011;DHT22;37038;50.182;8.624;2023-04-25T06:05:20;12.00;99.90
51011;DHT22;37038;50.182;8.624;2023-04-25T06:08:09;11.70;99.90
51011;DHT22;37038;50.182;8.624;2023-04-25T06:10:57;11.80;99.90
51011;DHT22;37038;50.182;8.624;2023-04-25T06:13:46;11.70;99.90
51011;DHT22;37038;50.182;8.624;2023-04-25T06:16:43;12.20;99.90
51011;DHT22;37038;50.182;8.624;2023-04-25T06:19:35;12.00;99.90
51011;DHT22;37038;50.182;8.624;2023-04-25T06:22:39;12.60;99.90
51011;DHT22;37038;50.182;8.624;2023-04-25T06:25:34;11.90;99.90
51011;DHT22;37038;50.182;8.624;2023-04-25T06:28:22;12.10;99.90
51011;DHT22;37038;50.182;8.624;2023-04-25T06:31:13;12.70;99.90
51011;DHT22;37038;50.182;8.624;2023-04-25T06:34:08;13.40;99.90
51011;DHT22;37038;50.182;8.624;2023-04-25T06:36:56;14.70;97.90
51011;DHT22;37038;50.182;8.624;2023-04-25T06:39:50;15.10;90.80
51011;DHT22;37038;50.182;8.624;2023-04-25T06:42:44;14.40;83.80
51011;DHT22;37038;50.182;8.624;2023-04-25T06:46:01;12.90;92.20
51011;DHT22;37038;50.182;8.624;2023-04-25T06:48:56;13.80;91.20
51011;DHT22;37038;50.182;8.624;2023-04-25T06:51:54;14.80;92.70
51011;DHT22;37038;50.182;8.624;2023-04-25T06:54:47;17.40;85.40
51011;DHT22;37038;50.182;8.624;2023-04-25T06:57:35;19.30;52.40
51011;DHT22;37038;50.182;8.624;2023-04-25T07:00:25;18.20;46.80
51011;DHT22;37038;50.182;8.624;2023-04-25T07:03:15;16.40;53.20
51011;DHT22;37038;50.182;8.624;2023-04-25T07:06:03;14.10;54.10
51011;DHT22;37038;50.182;8.624;2023-04-25T07:08:51;13.20;65.20
51011;DHT22;37038;50.182;8.624;2023-04-25T07:11:39;13.60;59.20
51011;DHT22;37038;50.182;8.624;2023-04-25T07:14:27;12.10;72.00
51011;DHT22;37038;50.182;8.624;2023-04-25T07:17:15;12.60;77.60
51011;DHT22;37038;50.182;8.624;2023-04-25T07:20:05;12.70;88.80
51011;DHT22;37038;50.182;8.624;2023-04-25T07:22:53;11.90;88.30
51011;DHT22;37038;50.182;8.624;2023-04-25T07:25:52;12.30;91.00
51011;DHT22;37038;50.182;8.624;2023-04-25T07:31:39;16.90;72.50
51011;DHT22;37038;50.182;8.624;2023-04-25T07:34:36;18.90;57.10
51011;DHT22;37038;50.182;8.624;2023-04-25T07:37:42;19.50;53.50
51011;DHT22;37038;50.182;8.624;2023-04-25T07:40:54;18.30;45.80
51011;DHT22;37038;50.182;8.624;2023-04-25T07:44:03;18.50;44.30
51011;DHT22;37038;50.182;8.624;2023-04-25T07:46:51;17.70;45.00
51011;DHT22;37038;50.182;8.624;2023-04-25T07:50:20;17.60;48.70
51011;DHT22;37038;50.182;8.624;2023-04-25T08:10:16;17.00;46.70
51011;DHT22;37038;50.182;8.624;2023-04-25T08:13:14;17.90;45.40
51011;DHT22;37038;50.182;8.624;2023-04-25T08:16:13;18.50;37.80
51011;DHT22;37038;50.182;8.624;2023-04-25T08:19:11;17.80;38.70
51011;DHT22;37038;50.182;8.624;2023-04-25T08:22:09;18.40;37.90
51011;DHT22;37038;50.182;8.624;2023-04-25T08:25:02;18.30;37.20
51011;DHT22;37038;50.182;8.624;2023-04-25T08:28:02;18.10;37.10
51011;DHT22;37038;50.182;8.624;2023-04-25T08:37:48;20.60;34.10
51011;DHT22;37038;50.182;8.624;2023-04-25T08:40:43;16.70;39.30
51011;DHT22;37038;50.182;8.624;2023-04-25T08:43:49;17.20;36.30
51011;DHT22;37038;50.182;8.624;2023-04-25T08:47:12;15.40;38.80
51011;DHT22;37038;50.182;8.624;2023-04-25T08:54:22;19.40;34.70
51011;DHT22;37038;50.182;8.624;2023-04-25T08:57:28;19.20;29.30
51011;DHT22;37038;50.182;8.624;2023-04-25T09:00:16;16.50;30.50
51011;DHT22;37038;50.182;8.624;2023-04-25T09:03:13;15.60;36.00
51011;DHT22;37038;50.182;8.624;2023-04-25T09:06:05;16.80;35.70
51011;DHT22;37038;50.182;8.624;2023-04-25T09:09:22;18.30;34.50
51011;DHT22;37038;50.182;8.624;2023-04-25T09:12:20;16.40;37.80
51011;DHT22;37038;50.182;8.624;2023-04-25T09:15:13;15.00;42.60
51011;DHT22;37038;50.182;8.624;2023-04-25T09:18:43;16.30;37.90
51011;DHT22;37038;50.182;8.624;2023-04-25T09:21:54;16.80;34.70
51011;DHT22;37038;50.182;8.624;2023-04-25T09:24:45;18.20;34.70
51011;DHT22;37038;50.182;8.624;2023-04-25T09:28:00;18.20;29.10
51011;DHT22;37038;50.182;8.624;2023-04-25T09:31:00;18.30;32.80
51011;DHT22;37038;50.182;8.624;2023-04-25T09:34:02;17.10;31.30
51011;DHT22;37038;50.182;8.624;2023-04-25T09:36:54;15.90;29.90
51011;DHT22;37038;50.182;8.624;2023-04-25T09:39:45;16.30;38.40
51011;DHT22;37038;50.182;8.624;2023-04-25T09:42:34;17.20;32.50
51011;DHT22;37038;50.182;8.624;2023-04-25T09:45:22;17.00;34.10
51011;DHT22;37038;50.182;8.624;2023-04-25T09:48:41;16.30;31.50
51011;DHT22;37038;50.182;8.624;2023-04-25T09:51:53;16.50;31.40
51011;DHT22;37038;50.182;8.624;2023-04-25T09:54:46;17.00;34.10
51011;DHT22;37038;50.182;8.624;2023-04-25T09:57:35;15.80;34.60
51011;DHT22;37038;50.182;8.624;2023-04-25T10:00:30;14.50;40.90
51011;DHT22;37038;50.182;8.624;2023-04-25T10:03:20;14.20;39.00
51011;DHT22;37038;50.182;8.624;2023-04-25T10:06:19;14.40;39.90
51011;DHT22;37038;50.182;8.624;2023-04-25T10:09:09;14.10;36.50
51011;DHT22;37038;50.182;8.624;2023-04-25T10:11:58;13.90;43.70
51011;DHT22;37038;50.182;8.624;2023-04-25T10:14:46;14.10;39.90
51011;DHT22;37038;50.182;8.624;2023-04-25T10:17:35;13.90;42.60
51011;DHT22;37038;50.182;8.624;2023-04-25T10:20:28;12.80;49.50
51011;DHT22;37038;50.182;8.624;2023-04-25T10:23:20;12.30;63.50
51011;DHT22;37038;50.182;8.624;2023-04-25T10:26:08;12.30;72.20
51011;DHT22;37038;50.182;8.624;2023-04-25T10:29:04;12.10;76.90
51011;DHT22;37038;50.182;8.624;2023-04-25T10:31:52;11.90;85.90
51011;DHT22;37038;50.182;8.624;2023-04-25T10:34:42;11.80;88.30
51011;DHT22;37038;50.182;8.624;2023-04-25T10:37:34;11.30;92.60
51011;DHT22;37038;50.182;8.624;2023-04-25T10:40:26;11.40;95.50
51011;DHT22;37038;50.182;8.624;2023-04-25T10:43:42;11.60;95.70
51011;DHT22;37038;50.182;8.624;2023-04-25T10:46:32;11.70;95.50
51011;DHT22;37038;50.182;8.624;2023-04-25T10:49:34;11.80;95.00
51011;DHT22;37038;50.182;8.624;2023-04-25T10:52:26;12.30;94.40
51011;DHT22;37038;50.182;8.624;2023-04-25T10:55:15;12.20;92.50
51011;DHT22;37038;50.182;8.624;2023-04-25T10:58:03;12.60;92.00
51011;DHT22;37038;50.182;8.624;2023-04-25T11:00:51;12.70;85.60
51011;DHT22;37038;50.182;8.624;2023-04-25T11:03:44;12.20;84.10
51011;DHT22;37038;50.182;8.624;2023-04-25T11:09:23;11.90;88.80
51011;DHT22;37038;50.182;8.624;2023-04-25T11:12:11;11.60;86.70
51011;DHT22;37038;50.182;8.624;2023-04-25T11:15:03;11.70;84.10
51011;DHT22;37038;50.182;8.624;2023-04-25T11:17:52;11.70;86.20
51011;DHT22;37038;50.182;8.624;2023-04-25T11:20:43;11.70;79.20
51011;DHT22;37038;50.182;8.624;2023-04-25T11:23:31;12.00;77.50
51011;DHT22;37038;50.182;8.624;2023-04-25T11:26:19;12.70;75.00
51011;DHT22;37038;50.182;8.624;2023-04-25T11:29:07;14.20;66.90
51011;DHT22;37038;50.182;8.624;2023-04-25T11:31:55;16.50;47.90
51011;DHT22;37038;50.182;8.624;2023-04-25T11:34:49;16.90;42.00
51011;DHT22;37038;50.182;8.624;2023-04-25T11:37:43;15.90;42.30
51011;DHT22;37038;50.182;8.624;2023-04-25T11:40:31;15.30;39.30
51011;DHT22;37038;50.182;8.624;2023-04-25T11:43:26;14.00;41.00
51011;DHT22;37038;50.182;8.624;2023-04-25T11:46:14;13.60;44.20
51011;DHT22;37038;50.182;8.624;2023-04-25T11:49:04;13.60;45.60
51011;DHT22;37038;50.182;8.624;2023-04-25T11:51:52;12.90;46.10
51011;DHT22;37038;50.182;8.624;2023-04-25T11:54:40;12.90;48.40
51011;DHT22;37038;50.182;8.624;2023-04-25T11:57:33;13.00;47.00
51011;DHT22;37038;50.182;8.624;2023-04-25T12:00:26;12.00;48.70
51011;DHT22;37038;50.182;8.624;2023-04-25T12:03:16;11.60;49.50
51011;DHT22;37038;50.182;8.624;2023-04-25T12:06:19;11.60;50.10
51011;DHT22;37038;50.182;8.624;2023-04-25T12:09:14;11.60;50.10
51011;DHT22;37038;50.182;8.624;2023-04-25T12:12:03;11.50;53.10
51011;DHT22;37038;50.182;8.624;2023-04-25T12:14:54;11.70;55.10
51011;DHT22;37038;50.182;8.624;2023-04-25T12:17:49;11.80;58.40
51011;DHT22;37038;50.182;8.624;2023-04-25T12:20:46;11.70;58.50
51011;DHT22;37038;50.182;8.624;2023-04-25T12:23:39;11.50;61.00
51011;DHT22;37038;50.182;8.624;2023-04-25T12:29:54;11.10;62.80
51011;DHT22;37038;50.182;8.624;2023-04-25T12:32:50;11.30;65.30
51011;DHT22;37038;50.182;8.624;2023-04-25T12:35:38;11.60;64.80
51011;DHT22;37038;50.182;8.624;2023-04-25T12:38:30;12.40;60.80
51011;DHT22;37038;50.182;8.624;2023-04-25T12:41:18;12.50;57.50
51011;DHT22;37038;50.182;8.624;2023-04-25T12:44:06;13.20;57.20
51011;DHT22;37038;50.182;8.624;2023-04-25T12:46:53;14.40;52.50
51011;DHT22;37038;50.182;8.624;2023-04-25T12:49:47;15.00;47.70
51011;DHT22;37038;50.182;8.624;2023-04-25T12:52:39;16.20;42.90
51011;DHT22;37038;50.182;8.624;2023-04-25T12:55:26;17.40;31.50
51011;DHT22;37038;50.182;8.624;2023-04-25T12:58:20;15.50;36.80
51011;DHT22;37038;50.182;8.624;2023-04-25T13:01:15;14.40;38.20
51011;DHT22;37038;50.182;8.624;2023-04-25T13:04:05;13.60;39.80
51011;DHT22;37038;50.182;8.624;2023-04-25T13:07:11;12.80;36.90
51011;DHT22;37038;50.182;8.624;2023-04-25T13:09:59;12.20;42.70
51011;DHT22;37038;50.182;8.624;2023-04-25T13:12:46;12.40;41.30
51011;DHT22;37038;50.182;8.624;2023-04-25T13:15:37;11.80;42.50
51011;DHT22;37038;50.182;8.624;2023-04-25T13:18:25;11.80;48.10
51011;DHT22;37038;50.182;8.624;2023-04-25T13:21:15;11.80;47.50
51011;DHT22;37038;50.182;8.624;2023-04-25T13:24:08;12.10;46.60
51011;DHT22;37038;50.182;8.624;2023-04-25T13:26:59;12.20;48.00
51011;DHT22;37038;50.182;8.624;2023-04-25T13:29:47;12.90;47.80
51011;DHT22;37038;50.182;8.624;2023-04-25T13:32:38;12.80;47.40
51011;DHT22;37038;50.182;8.624;2023-04-25T13:35:26;12.90;45.80
51011;DHT22;37038;50.182;8.624;2023-04-25T13:38:15;13.10;45.90
51011;DHT22;37038;50.182;8.624;2023-04-25T13:41:03;12.90;45.50
51011;DHT22;37038;50.182;8.624;2023-04-25T13:43:51;13.00;46.30
51011;DHT22;37038;50.182;8.624;2023-04-25T13:46:40;13.00;48.30
51011;DHT22;37038;50.182;8.624;2023-04-25T13:49:34;13.00;47.50
51011;DHT22;37038;50.182;8.624;2023-04-25T13:52:26;13.80;45.50
51011;DHT22;37038;50.182;8.624;2023-04-25T13:55:16;16.00;39.30
51011;DHT22;37038;50.182;8.624;2023-04-25T13:58:18;16.20;36.40
51011;DHT22;37038;50.182;8.624;2023-04-25T14:01:22;15.30;37.10
51011;DHT22;37038;50.182;8.624;2023-04-25T14:04:13;14.70;36.20
51011;DHT22;37038;50.182;8.624;2023-04-25T14:07:06;14.00;34.40
51011;DHT22;37038;50.182;8.624;2023-04-25T14:10:10;14.70;32.80
51011;DHT22;37038;50.182;8.624;2023-04-25T14:13:01;15.10;34.90
51011;DHT22;37038;50.182;8.624;2023-04-25T14:15:51;15.10;33.20
51011;DHT22;37038;50.182;8.624;2023-04-25T14:18:39;13.90;34.10
51011;DHT22;37038;50.182;8.624;2023-04-25T14:21:30;12.60;34.70
51011;DHT22;37038;50.182;8.624;2023-04-25T14:24:19;12.70;38.60
51011;DHT22;37038;50.182;8.624;2023-04-25T14:27:08;12.70;36.40
51011;DHT22;37038;50.182;8.624;2023-04-25T14:29:56;13.00;36.10
51011;DHT22;37038;50.182;8.624;2023-04-25T14:33:15;12.70;38.40
51011;DHT22;37038;50.182;8.624;2023-04-25T14:36:02;12.20;35.30
51011;DHT22;37038;50.182;8.624;2023-04-25T14:38:51;12.20;35.40
51011;DHT22;37038;50.182;8.624;2023-04-25T14:41:39;12.20;36.20
51011;DHT22;37038;50.182;8.624;2023-04-25T14:44:29;12.10;38.50
51011;DHT22;37038;50.182;8.624;2023-04-25T14:47:17;12.50;38.30
51011;DHT22;37038;50.182;8.624;2023-04-25T14:50:10;12.00;38.50
51011;DHT22;37038;50.182;8.624;2023-04-25T14:53:03;11.60;40.60
51011;DHT22;37038;50.182;8.624;2023-04-25T14:55:50;11.60;40.60
51011;DHT22;37038;50.182;8.624;2023-04-25T14:58:39;11.60;40.80
51011;DHT22;37038;50.182;8.624;2023-04-25T15:01:28;11.60;39.80
51011;DHT22;37038;50.182;8.624;2023-04-25T15:04:16;11.80;42.10
51011;DHT22;37038;50.182;8.624;2023-04-25T15:07:06;13.50;39.60
51011;DHT22;37038;50.182;8.624;2023-04-25T15:09:54;14.90;33.20
51011;DHT22;37038;50.182;8.624;2023-04-25T15:12:43;15.20;27.80
51011;DHT22;37038;50.182;8.624;2023-04-25T15:15:34;15.00;31.10
51011;DHT22;37038;50.182;8.624;2023-04-25T15:21:12;12.80;39.50
51011;DHT22;37038;50.182;8.624;2023-04-25T15:24:05;12.50;37.80
51011;DHT22;37038;50.182;8.624;2023-04-25T15:26:55;14.60;36.60
51011;DHT22;37038;50.182;8.624;2023-04-25T15:29:43;14.60;32.20
51011;DHT22;37038;50.182;8.624;2023-04-25T15:32:44;14.20;35.40
51011;DHT22;37038;50.182;8.624;2023-04-25T15:35:35;15.00;38.90
51011;DHT22;37038;50.182;8.624;2023-04-25T15:38:28;16.70;33.40
51011;DHT22;37038;50.182;8.624;2023-04-25T15:41:19;17.30;28.70
51011;DHT22;37038;50.182;8.624;2023-04-25T15:44:10;15.70;30.00
51011;DHT22;37038;50.182;8.624;2023-04-25T15:46:58;15.70;30.80
51011;DHT22;37038;50.182;8.624;2023-04-25T15:49:48;16.80;28.90
51011;DHT22;37038;50.182;8.624;2023-04-25T15:52:38;17.70;25.90
51011;DHT22;37038;50.182;8.624;2023-04-25T15:55:27;17.70;26.70
51011;DHT22;37038;50.182;8.624;2023-04-25T15:58:16;15.70;24.00
51011;DHT22;37038;50.182;8.624;2023-04-25T16:01:03;12.80;26.90
51011;DHT22;37038;50.182;8.624;2023-04-25T16:03:51;13.20;27.20
51011;DHT22;37038;50.182;8.624;2023-04-25T16:06:40;13.80;27.20
51011;DHT22;37038;50.182;8.624;2023-04-25T16:09:28;14.30;25.80
51011;DHT22;37038;50.182;8.624;2023-04-25T16:12:19;13.90;27.30
51011;DHT22;37038;50.182;8.624;2023-04-25T16:15:08;14.60;25.00
51011;DHT22;37038;50.182;8.624;2023-04-25T16:17:55;13.70;27.50
51011;DHT22;37038;50.182;8.624;2023-04-25T16:20:43;14.00;29.20
51011;DHT22;37038;50.182;8.624;2023-04-25T16:23:32;14.80;28.50
51011;DHT22;37038;50.182;8.624;2023-04-25T16:26:22;15.40;28.30
51011;DHT22;37038;50.182;8.624;2023-04-25T16:29:10;15.50;28.40
51011;DHT22;37038;50.182;8.624;2023-04-25T16:32:02;16.00;27.20
51011;DHT22;37038;50.182;8.624;2023-04-25T16:34:51;16.00;28.00
51011;DHT22;37038;50.182;8.624;2023-04-25T16:37:41;16.90;28.10
51011;DHT22;37038;50.182;8.624;2023-04-25T16:40:29;16.60;26.50
51011;DHT22;37038;50.182;8.624;2023-04-25T16:43:17;16.30;27.20
51011;DHT22;37038;50.182;8.624;2023-04-25T16:46:07;16.40;27.00
51011;DHT22;37038;50.182;8.624;2023-04-25T16:48:55;16.40;27.20
51011;DHT22;37038;50.182;8.624;2023-04-25T16:51:46;16.50;24.40
51011;DHT22;37038;50.182;8.624;2023-04-25T16:54:34;16.30;25.20
51011;DHT22;37038;50.182;8.624;2023-04-25T16:57:22;15.90;24.60
51011;DHT22;37038;50.182;8.624;2023-04-25T17:00:10;16.90;26.30
51011;DHT22;37038;50.182;8.624;2023-04-25T17:03:02;16.80;26.10
51011;DHT22;37038;50.182;8.624;2023-04-25T17:05:55;16.80;25.20
51011;DHT22;37038;50.182;8.624;2023-04-25T17:08:53;17.20;25.90
51011;DHT22;37038;50.182;8.624;2023-04-25T17:11:49;16.70;25.70
51011;DHT22;37038;50.182;8.624;2023-04-25T17:14:39;16.40;25.60
51011;DHT22;37038;50.182;8.624;2023-04-25T17:17:27;15.10;26.80
51011;DHT22;37038;50.182;8.624;2023-04-25T17:20:17;15.30;26.10
51011;DHT22;37038;50.182;8.624;2023-04-25T17:23:05;15.60;27.00
51011;DHT22;37038;50.182;8.624;2023-04-25T17:25:53;15.90;28.50
51011;DHT22;37038;50.182;8.624;2023-04-25T17:28:41;15.70;27.60
51011;DHT22;37038;50.182;8.624;2023-04-25T17:31:31;15.20;26.60
51011;DHT22;37038;50.182;8.624;2023-04-25T17:34:20;13.90;25.90
51011;DHT22;37038;50.182;8.624;2023-04-25T17:37:11;13.60;25.90
51011;DHT22;37038;50.182;8.624;2023-04-25T17:40:06;12.60;25.10
51011;DHT22;37038;50.182;8.624;2023-04-25T17:42:59;11.90;26.80
51011;DHT22;37038;50.182;8.624;2023-04-25T17:45:48;11.40;28.60
51011;DHT22;37038;50.182;8.624;2023-04-25T17:48:40;11.40;28.30
51011;DHT22;37038;50.182;8.624;2023-04-25T17:51:29;11.00;29.60
51011;DHT22;37038;50.182;8.624;2023-04-25T17:54:18;10.90;29.90
51011;DHT22;37038;50.182;8.624;2023-04-25T17:57:08;10.80;30.00
51011;DHT22;37038;50.182;8.624;2023-04-25T17:59:56;10.80;30.20
51011;DHT22;37038;50.182;8.624;2023-04-25T18:02:44;10.70;31.20
51011;DHT22;37038;50.182;8.624;2023-04-25T18:05:34;10.50;31.90
51011;DHT22;37038;50.182;8.624;2023-04-25T18:08:22;10.40;32.10
51011;DHT22;37038;50.182;8.624;2023-04-25T18:11:10;9.90;35.00
51011;DHT22;37038;50.182;8.624;2023-04-25T18:13:58;9.90;35.10
51011;DHT22;37038;50.182;8.624;2023-04-25T18:16:51;9.90;36.30
51011;DHT22;37038;50.182;8.624;2023-04-25T18:19:40;9.80;36.00
51011;DHT22;37038;50.182;8.624;2023-04-25T18:22:28;9.90;37.90
51011;DHT22;37038;50.182;8.624;2023-04-25T18:25:17;9.70;38.80
51011;DHT22;37038;50.182;8.624;2023-04-25T18:28:05;9.60;39.00
51011;DHT22;37038;50.182;8.624;2023-04-25T18:30:55;9.40;40.20
51011;DHT22;37038;50.182;8.624;2023-04-25T18:33:46;9.30;42.00
51011;DHT22;37038;50.182;8.624;2023-04-25T18:36:36;9.20;41.50
51011;DHT22;37038;50.182;8.624;2023-04-25T18:39:27;9.10;42.10
51011;DHT22;37038;50.182;8.624;2023-04-25T18:42:19;9.10;43.70
51011;DHT22;37038;50.182;8.624;2023-04-25T18:45:08;9.00;44.20
51011;DHT22;37038;50.182;8.624;2023-04-25T18:47:56;9.00;44.90
51011;DHT22;37038;50.182;8.624;2023-04-25T18:50:46;8.90;45.10
51011;DHT22;37038;50.182;8.624;2023-04-25T18:53:35;8.80;46.50
51011;DHT22;37038;50.182;8.624;2023-04-25T18:56:24;8.80;45.90
51011;DHT22;37038;50.182;8.624;2023-04-25T19:00:05;8.80;46.20
51011;DHT22;37038;50.182;8.624;2023-04-25T19:07:05;8.60;49.30
51011;DHT22;37038;50.182;8.624;2023-04-25T19:10:49;8.50;48.70
51011;DHT22;37038;50.182;8.624;2023-04-25T19:14:05;8.40;48.40
51011;DHT22;37038;50.182;8.624;2023-04-25T19:17:09;8.40;49.80
51011;DHT22;37038;50.182;8.624;2023-04-25T19:20:15;8.30;49.80
51011;DHT22;37038;50.182;8.624;2023-04-25T19:23:15;8.30;50.60
51011;DHT22;37038;50.182;8.624;2023-04-25T19:26:09;8.20;52.40
51011;DHT22;37038;50.182;8.624;2023-04-25T19:29:13;8.10;52.80
51011;DHT22;37038;50.182;8.624;2023-04-25T19:32:14;8.10;52.80
51011;DHT22;37038;50.182;8.624;2023-04-25T19:35:43;8.10;53.90
51011;DHT22;37038;50.182;8.624;2023-04-25T19:39:07;8.00;54.70
51011;DHT22;37038;50.182;8.624;2023-04-25T19:42:35;7.90;55.60
51011;DHT22;37038;50.182;8.624;2023-04-25T19:45:29;7.90;55.50
51011;DHT22;37038;50.182;8.624;2023-04-25T19:48:26;7.90;56.40
51011;DHT22;37038;50.182;8.624;2023-04-25T19:51:40;7.80;57.40
51011;DHT22;37038;50.182;8.624;2023-04-25T19:54:56;7.80;56.60
51011;DHT22;37038;50.182;8.624;2023-04-25T19:58:23;7.70;57.10
51011;DHT22;37038;50.182;8.624;2023-04-25T20:01:46;7.60;57.70